KMGR/MGR METAR and TAF weather

Enter ICAO airport designator
Station Type Date Time Source
KMGR METAR 2022/08/16 18:15 UTC NOAA

KMGR 161815Z AUTO 29007KT 10SM VCTS CLR 32/24 A2989 RMK AO2 LTG DSNT E THRU SW


Station Type Date Time Source
KMGR Decoded METAR 2022/08/16 18:15 UTC NOAA

Moultrie, Moultrie Municipal Airport, GA, United States (KMGR) 31-05-05N 083-48-11W
Aug 16, 2022 - 02:15 PM EDT / 2022.08.16 1815 UTC
Wind: from the WNW (290 degrees) at 8 MPH (7 KT):0
Visibility: 10 mile(s):0
Sky conditions: clear
Weather: thunder in the vicinity; Lightning observed
Temperature: 89 F (32 C)
Heat index: 98.4 F (36.9 C):1
Dew Point: 75 F (24 C)
Relative Humidity: 62%
Pressure (altimeter): 29.89 in. Hg (1012 hPa)
ob: KMGR 161815Z AUTO 29007KT 10SM VCTS CLR 32/24 A2989 RMK AO2 LTG DSNT E THRU SW
cycle: 18

Station Type Date Time Source
KMGR TAF UTC NOAA

Error!

Example: see airport list